Bowling Green, KY

6:27 AM CDT on August 25, 2016 (GMT -0500)
Bowling Green-Warren County Regional | | Change Station

Elev 548 ft 36.96 °N, 86.42 °W | Updated 34 minutes ago

Scattered Clouds
Scattered Clouds
76 °F
Feels Like 76 °F
N
4
Wind Variable Wind from South

Today
High -- | Low -- °F
--% Chance of Precip.
Yesterday
High -- | Low -- °F
Precip. -- in
Pressure 30.12 in
Visibility 10.0 miles
Clouds Few 4500 ft
Scattered Clouds 6000 ft
Dew Point 72 °F
Humidity 87%
Rainfall 0.00 in
Snow Depth Not available.
6:11 AM 7:23 PM
Waning Gibbous, 46% visible
METAR KBWG 251053Z AUTO 19003KT 10SM FEW045 SCT060 24/22 A3014 RMK AO2 SLP198 T02440222
Pressure 30.12 in
Visibility 10.0 miles
Clouds Few 4500 ft
Scattered Clouds 6000 ft
Dew Point 72 °F
Humidity 87%
Rainfall 0.00 in
Snow Depth Not available.
6:11 AM 7:23 PM
Waning Gibbous, 46% visible
METAR KBWG 251053Z AUTO 19003KT 10SM FEW045 SCT060 24/22 A3014 RMK AO2 SLP198 T02440222

10-Day Weather Forecast

Almanac

Astronomy

Aug. 25, 2016 Rise Set
Actual Time
Civil Twilight
Nautical Twilight
Astronomical Twilight
Moon
Length of Visible Light
Length of Day
Tomorrow will be .
, % of the Moon is Illuminated

Today's Extremes

State Highs State Lows

Community

WunderPhotos

Upload Photos

1,934,822 photos uploaded!

WunderBlog® & News

Nearby

Air Quality

  Air Quality AQ Index Pollutant
Not available.

Snow Depth

Station Depth Elevation

Earthquake Activity

City Distance Mag. Time & Date
Minimum magnitude displayed is 2.5.

Coastal Water Temperatures

Place Temperature

Stations

Nearby Weather Stations

Station Location Temp. Windchill Dew Point Humidity Wind Precip. Elev Updated Type
                   

Watches & Warnings

There are currently no watches in effect.